Terminal Aerodrome Forecast
Issued by NWS Knoxville/Tri Cities, TN

Home | Current Version | Previous Version | Text Only | Print | Product List | Glossary On
Versions: 1 2 3 4 5 6 7 8 9 10 11 12 13 14
000
FTUS44 KMRX 222330
TAFCHA
TAF
KCHA 222330Z 2300/2324 08007KT 4SM -RA BR SCT015 OVC035
      TEMPO 2300/2304 2SM RA OVC015
     FM230400 12012KT 3SM RA BR SCT008 OVC020
      TEMPO 2304/2308 1SM +RA BR SCT004 BKN008
     FM230900 11012G22KT 3SM -RA BR SCT005 OVC015
     FM231400 13010KT P6SM VCSH SCT020 OVC035
     FM232100 06007KT 4SM -RA BR OVC020=

USA.gov is the U.S. government's official web portal to all federal, state and local government web resources and services.